createdAt,value
2022-08-17T00:01:51.246Z,8.93
2022-08-17T00:05:58.275Z,7.85
2022-08-17T00:10:01.887Z,8.18
2022-08-17T00:14:14.745Z,7.18
2022-08-17T00:19:01.060Z,6.47
2022-08-17T00:22:41.100Z,6.78
2022-08-17T00:26:45.484Z,6.70
2022-08-17T00:30:53.022Z,6.43
2022-08-17T00:34:57.588Z,5.60
2022-08-17T00:39:01.170Z,5.47
2022-08-17T00:43:18.767Z,5.88
2022-08-17T00:47:21.683Z,6.95
2022-08-17T00:51:33.488Z,6.53
2022-08-17T00:55:37.069Z,5.68
2022-08-17T00:59:45.223Z,5.57
2022-08-17T01:03:48.894Z,5.57
2022-08-17T01:07:52.184Z,5.72
2022-08-17T01:11:54.956Z,6.07
2022-08-17T01:16:10.376Z,6.38
2022-08-17T01:20:13.323Z,6.40
2022-08-17T01:24:16.786Z,6.43
2022-08-17T01:28:52.373Z,6.57
2022-08-17T01:32:43.479Z,6.18
2022-08-17T01:36:48.600Z,6.82
2022-08-17T01:40:58.213Z,6.60
2022-08-17T01:45:07.055Z,6.43
2022-08-17T01:49:11.725Z,6.15
2022-08-17T01:53:20.700Z,6.80
2022-08-17T01:57:23.585Z,6.75
2022-08-17T02:01:30.701Z,6.05
2022-08-17T02:05:35.680Z,6.90
2022-08-17T02:09:38.437Z,7.00
2022-08-17T02:17:48.682Z,7.57
2022-08-17T02:21:57.910Z,6.93
2022-08-17T02:26:01.656Z,7.65
2022-08-17T02:30:59.600Z,7.55
2022-08-17T02:34:32.407Z,8.18
2022-08-17T02:38:36.490Z,7.80
2022-08-17T02:42:42.188Z,7.50
2022-08-17T02:46:45.014Z,7.38
2022-08-17T02:50:48.758Z,7.25
2022-08-17T02:54:51.558Z,7.60
2022-08-17T02:58:54.394Z,8.23
2022-08-17T03:02:57.746Z,7.60
2022-08-17T03:07:00.797Z,7.78
2022-08-17T03:11:03.792Z,7.88
2022-08-17T03:15:10.568Z,7.18
2022-08-17T03:19:13.488Z,7.40
2022-08-17T03:23:16.474Z,7.57
2022-08-17T03:27:20.801Z,7.90
2022-08-17T03:31:23.892Z,7.22
2022-08-17T03:35:30.484Z,7.57
2022-08-17T03:43:36.086Z,8.13
2022-08-17T03:47:57.345Z,8.48
2022-08-17T03:52:19.072Z,8.60
2022-08-17T03:56:40.287Z,8.20
2022-08-17T04:00:45.592Z,8.15
2022-08-17T04:04:51.097Z,8.05
2022-08-17T04:08:54.245Z,9.00
2022-08-17T04:13:01.279Z,8.38
2022-08-17T04:17:07.303Z,9.93
2022-08-17T04:21:10.577Z,8.57
2022-08-17T04:25:18.227Z,8.38
2022-08-17T04:29:21.659Z,8.13
2022-08-17T04:33:27.037Z,8.02
2022-08-17T04:37:29.929Z,9.68
2022-08-17T04:41:51.456Z,7.38
2022-08-17T04:46:00.968Z,8.10
2022-08-17T04:50:04.628Z,8.70
2022-08-17T04:54:17.886Z,9.25
2022-08-17T04:58:21.574Z,8.95
2022-08-17T05:02:25.023Z,8.18
2022-08-17T05:06:31.557Z,10.43
2022-08-17T05:10:38.277Z,9.50
2022-08-17T05:14:49.847Z,8.75
2022-08-17T05:18:53.111Z,9.85
2022-08-17T05:22:59.691Z,9.93
2022-08-17T05:31:10.185Z,10.85
2022-08-17T05:35:12.984Z,9.07
2022-08-17T05:39:17.368Z,10.02
2022-08-17T05:43:26.876Z,9.35
2022-08-17T05:47:31.101Z,11.02
2022-08-17T05:52:28.810Z,11.07
2022-08-17T05:57:03.195Z,9.77
2022-08-17T06:01:33.449Z,8.70
2022-08-17T06:05:42.345Z,7.88
2022-08-17T06:09:57.858Z,8.38
2022-08-17T06:14:39.881Z,8.27
2022-08-17T06:19:13.268Z,8.35
2022-08-17T06:23:39.330Z,8.63
2022-08-17T06:27:48.764Z,8.57
2022-08-17T06:32:52.094Z,7.78
2022-08-17T06:37:32.744Z,7.40
2022-08-17T06:41:38.145Z,6.55
2022-08-17T06:45:49.494Z,6.40
2022-08-17T06:50:18.101Z,7.70
2022-08-17T06:54:42.132Z,6.68
2022-08-17T06:58:45.438Z,6.85
2022-08-17T07:03:08.190Z,7.57
2022-08-17T07:07:31.137Z,6.90
2022-08-17T07:12:00.673Z,7.03
2022-08-17T07:16:15.663Z,8.32
2022-08-17T07:20:22.743Z,8.02
2022-08-17T07:24:53.715Z,8.85
2022-08-17T07:28:57.521Z,7.88
2022-08-17T07:33:13.409Z,7.35
2022-08-17T07:37:19.413Z,7.78
2022-08-17T07:41:22.324Z,7.07
2022-08-17T07:45:43.844Z,6.45
2022-08-17T07:49:47.165Z,5.90
2022-08-17T07:53:50.230Z,5.93
2022-08-17T07:57:58.501Z,5.38
2022-08-17T08:02:06.037Z,6.13
2022-08-17T08:06:21.174Z,7.65
2022-08-17T08:10:35.761Z,11.77
2022-08-17T08:14:39.779Z,13.65
2022-08-17T08:18:55.704Z,17.13
2022-08-17T08:23:22.658Z,15.23
2022-08-17T08:28:01.551Z,14.13
2022-08-17T08:32:31.109Z,11.68
2022-08-17T08:36:59.326Z,10.32
2022-08-17T08:41:30.767Z,9.88
2022-08-17T08:45:38.612Z,7.75
2022-08-17T08:50:37.485Z,7.90
2022-08-17T08:55:00.182Z,8.02
2022-08-17T08:59:23.370Z,7.80
2022-08-17T09:04:21.347Z,8.20
2022-08-17T09:08:52.956Z,8.60
2022-08-17T09:13:22.199Z,7.15
2022-08-17T09:17:39.957Z,8.05
2022-08-17T09:21:54.544Z,7.45
2022-08-17T09:26:16.958Z,7.03
2022-08-17T09:30:31.063Z,6.70
2022-08-17T09:34:43.654Z,6.80
2022-08-17T09:39:08.385Z,5.88
2022-08-17T09:43:34.276Z,5.78
2022-08-17T09:48:06.905Z,5.80
2022-08-17T09:52:38.249Z,5.53
2022-08-17T09:57:27.949Z,5.18
2022-08-17T10:01:41.532Z,6.05
2022-08-17T10:05:56.314Z,4.63
2022-08-17T10:10:03.964Z,6.15
2022-08-17T10:14:36.304Z,5.40
2022-08-17T10:19:11.030Z,5.07
2022-08-17T10:23:42.899Z,5.60
2022-08-17T10:27:52.457Z,5.00
2022-08-17T10:32:04.301Z,5.18
2022-08-17T10:36:41.028Z,4.70
2022-08-17T10:41:10.995Z,5.07
2022-08-17T10:45:37.925Z,4.38
2022-08-17T10:49:56.023Z,3.55
2022-08-17T10:54:02.037Z,4.40
2022-08-17T10:58:38.260Z,4.10
2022-08-17T11:02:53.450Z,4.45
2022-08-17T11:07:27.922Z,3.42
2022-08-17T11:12:10.602Z,4.20
2022-08-17T11:16:37.895Z,2.90
2022-08-17T11:20:46.923Z,3.13
2022-08-17T11:24:52.586Z,3.55
2022-08-17T11:29:01.575Z,3.15
2022-08-17T11:33:30.445Z,3.60
2022-08-17T11:38:03.084Z,3.03
2022-08-17T11:42:48.804Z,3.20
2022-08-17T11:48:08.998Z,3.03
2022-08-17T11:52:37.439Z,3.33
2022-08-17T11:56:50.660Z,3.45
2022-08-17T12:00:58.034Z,3.35
2022-08-17T12:05:22.039Z,3.47
2022-08-17T12:09:29.983Z,3.28
2022-08-17T12:13:43.413Z,2.92
2022-08-17T12:17:55.161Z,3.45
2022-08-17T12:22:04.429Z,3.67
2022-08-17T12:26:21.287Z,3.40
2022-08-17T12:30:24.047Z,3.17
2022-08-17T12:34:33.329Z,3.70
2022-08-17T12:38:37.947Z,4.00
2022-08-17T12:42:41.604Z,3.50
2022-08-17T12:47:01.879Z,2.97
2022-08-17T12:51:08.215Z,3.20
2022-08-17T12:55:21.405Z,3.35
2022-08-17T12:59:30.175Z,3.40
2022-08-17T13:03:40.070Z,3.45
2022-08-17T13:07:43.250Z,3.15
2022-08-17T13:11:51.487Z,4.00
2022-08-17T13:16:24.695Z,4.10
2022-08-17T13:20:27.671Z,3.65
2022-08-17T13:24:38.179Z,3.40
2022-08-17T13:28:51.769Z,2.83
2022-08-17T13:32:57.110Z,3.55
2022-08-17T13:37:26.236Z,3.25
2022-08-17T13:41:35.960Z,3.10
2022-08-17T13:45:50.489Z,3.55
2022-08-17T13:49:55.514Z,3.03
2022-08-17T13:54:01.270Z,3.28
2022-08-17T13:58:07.043Z,3.40
2022-08-17T14:02:11.419Z,2.92
2022-08-17T14:06:52.425Z,3.20
2022-08-17T14:14:44.789Z,2.80
2022-08-17T14:23:09.262Z,3.40
2022-08-17T14:27:12.429Z,3.70
2022-08-17T14:31:15.501Z,3.58
2022-08-17T14:35:19.366Z,3.45
2022-08-17T14:39:24.819Z,3.70
2022-08-17T14:43:28.011Z,3.70
2022-08-17T14:47:35.147Z,3.35
2022-08-17T14:52:10.047Z,3.42
2022-08-17T14:56:14.122Z,3.60
2022-08-17T15:00:17.511Z,3.75
2022-08-17T15:04:25.936Z,3.72
2022-08-17T15:08:29.710Z,3.80
2022-08-17T15:12:34.261Z,3.67
2022-08-17T15:16:37.672Z,3.83
2022-08-17T15:20:40.704Z,3.40
2022-08-17T15:24:43.575Z,4.18
2022-08-17T15:28:52.215Z,3.97
2022-08-17T15:33:02.001Z,4.13
2022-08-17T15:37:08.155Z,3.88
2022-08-17T15:41:15.483Z,3.63
2022-08-17T15:45:22.679Z,3.80
2022-08-17T15:49:25.714Z,3.75
2022-08-17T15:53:28.465Z,3.60
2022-08-17T15:57:38.820Z,3.42
2022-08-17T16:02:15.377Z,3.67
2022-08-17T16:06:24.147Z,4.00
2022-08-17T16:10:59.797Z,4.05
2022-08-17T16:15:04.127Z,3.60
2022-08-17T16:19:06.940Z,3.50
2022-08-17T16:23:18.533Z,3.95
2022-08-17T16:27:23.207Z,3.92
2022-08-17T16:31:31.982Z,4.45
2022-08-17T16:35:34.881Z,4.10
2022-08-17T16:39:38.921Z,4.28
2022-08-17T16:43:42.107Z,3.92
2022-08-17T16:47:49.939Z,3.78
2022-08-17T16:51:59.137Z,3.30
2022-08-17T16:56:02.114Z,3.55
2022-08-17T17:00:08.154Z,3.42
2022-08-17T17:04:19.329Z,3.67
2022-08-17T17:08:30.797Z,3.75
2022-08-17T17:13:01.429Z,3.75
2022-08-17T17:17:27.031Z,3.45
2022-08-17T17:21:52.873Z,3.30
2022-08-17T17:26:12.061Z,3.85
2022-08-17T17:30:23.332Z,3.58
2022-08-17T17:34:32.629Z,3.90
2022-08-17T17:38:45.692Z,3.78
2022-08-17T17:42:51.915Z,3.85
2022-08-17T17:47:00.775Z,3.60
2022-08-17T17:52:02.895Z,4.43
2022-08-17T17:56:18.783Z,4.17
2022-08-17T18:00:40.659Z,3.33
2022-08-17T18:04:56.642Z,3.75
2022-08-17T18:09:25.854Z,3.70
2022-08-17T18:14:06.000Z,3.70
2022-08-17T18:18:19.774Z,4.05
2022-08-17T18:22:23.823Z,4.90
2022-08-17T18:26:50.112Z,5.32
2022-08-17T18:31:22.856Z,5.22
2022-08-17T18:35:32.881Z,4.18
2022-08-17T18:39:39.745Z,4.75
2022-08-17T18:44:00.867Z,5.00
2022-08-17T18:48:26.894Z,4.57
2022-08-17T18:52:33.000Z,4.60
2022-08-17T19:00:43.673Z,4.80
2022-08-17T19:05:01.665Z,5.25
2022-08-17T19:09:24.281Z,4.72
2022-08-17T19:13:36.499Z,4.65
2022-08-17T19:18:04.555Z,4.85
2022-08-17T19:22:28.880Z,5.25
2022-08-17T19:26:55.572Z,5.20
2022-08-17T19:31:04.550Z,4.73
2022-08-17T19:35:15.036Z,4.20
2022-08-17T19:39:46.021Z,4.53
2022-08-17T19:44:07.157Z,4.70
2022-08-17T19:48:28.039Z,4.75
2022-08-17T19:53:02.135Z,4.97
2022-08-17T19:57:38.742Z,4.63
2022-08-17T20:01:49.171Z,4.57
2022-08-17T20:06:15.763Z,4.97
2022-08-17T20:10:26.906Z,5.50
2022-08-17T20:14:53.655Z,4.68
2022-08-17T20:19:41.317Z,4.78
2022-08-17T20:23:55.867Z,5.22
2022-08-17T20:28:22.391Z,5.75
2022-08-17T20:32:28.653Z,5.28
2022-08-17T20:41:04.042Z,5.75
2022-08-17T20:45:31.618Z,4.53
2022-08-17T20:49:47.184Z,5.50
2022-08-17T20:53:51.998Z,5.13
2022-08-17T20:57:54.902Z,5.13
2022-08-17T21:02:18.322Z,6.18
2022-08-17T21:06:25.196Z,5.88
2022-08-17T21:10:30.213Z,5.53
2022-08-17T21:14:58.162Z,5.65
2022-08-17T21:19:17.015Z,5.35
2022-08-17T21:23:26.793Z,5.43
2022-08-17T21:27:54.848Z,5.40
2022-08-17T21:44:36.566Z,5.60
2022-08-17T21:48:48.077Z,6.20
2022-08-17T21:52:56.223Z,5.80
2022-08-17T21:57:02.789Z,5.97
2022-08-17T22:01:29.327Z,5.80
2022-08-17T22:05:36.513Z,5.60
2022-08-17T22:09:46.792Z,5.82
2022-08-17T22:13:49.712Z,5.40
2022-08-17T22:18:01.738Z,5.53
2022-08-17T22:22:27.513Z,5.70
2022-08-17T22:27:13.055Z,5.47
2022-08-17T22:31:32.851Z,5.13
2022-08-17T22:35:41.021Z,4.90
2022-08-17T22:39:43.823Z,5.30
2022-08-17T22:43:48.288Z,5.22
2022-08-17T22:47:55.798Z,4.93
2022-08-17T22:52:22.887Z,5.25
2022-08-17T22:56:44.601Z,5.32
2022-08-17T23:00:49.433Z,6.05
2022-08-17T23:05:12.821Z,5.67
2022-08-17T23:09:15.608Z,6.40
2022-08-17T23:13:21.307Z,6.85
2022-08-17T23:17:24.765Z,6.05
2022-08-17T23:21:31.817Z,6.00
2022-08-17T23:25:44.488Z,6.03
2022-08-17T23:29:48.715Z,5.85
2022-08-17T23:33:52.475Z,6.95
2022-08-17T23:37:55.756Z,6.88
2022-08-17T23:42:00.473Z,6.32
2022-08-17T23:46:04.044Z,6.63
2022-08-17T23:50:08.122Z,7.15
2022-08-17T23:54:19.731Z,6.68
2022-08-17T23:58:22.947Z,6.45
